createdAt,value
2018-08-10T00:00:29.433Z,78.70
2018-08-10T00:02:57.775Z,79.60
2018-08-10T00:05:26.067Z,78.20
2018-08-10T00:07:54.757Z,78.30
2018-08-10T00:10:22.963Z,78.10
2018-08-10T00:12:51.162Z,77.60
2018-08-10T00:15:19.354Z,77.10
2018-08-10T00:17:47.563Z,77.50
2018-08-10T00:20:16.606Z,78.40
2018-08-10T00:22:45.126Z,77.80
2018-08-10T00:25:15.903Z,78.50
2018-08-10T00:27:44.127Z,80.20
2018-08-10T00:30:16.571Z,80.10
2018-08-10T00:32:45.855Z,80.40
2018-08-10T00:35:14.069Z,79.80
2018-08-10T00:37:42.964Z,80.30
2018-08-10T00:40:16.765Z,80.20
2018-08-10T00:42:45.140Z,80.10
2018-08-10T00:45:14.336Z,80.80
2018-08-10T00:47:43.156Z,81.00
2018-08-10T00:50:12.511Z,80.80
2018-08-10T00:52:40.924Z,81.50
2018-08-10T00:55:10.931Z,81.50
2018-08-10T00:57:39.175Z,82.20
2018-08-10T01:00:09.983Z,82.90
2018-08-10T01:02:38.452Z,83.70
2018-08-10T01:05:08.063Z,84.80
2018-08-10T01:07:36.635Z,84.00
2018-08-10T01:10:08.671Z,84.10
2018-08-10T01:12:37.191Z,84.10
2018-08-10T01:15:07.036Z,84.00
2018-08-10T01:17:35.215Z,84.60
2018-08-10T01:20:06.118Z,85.10
2018-08-10T01:22:38.543Z,85.30
2018-08-10T01:25:06.747Z,85.50
2018-08-10T01:27:40.503Z,85.10
2018-08-10T01:30:08.709Z,85.30
2018-08-10T01:32:36.890Z,85.30
2018-08-10T01:35:05.975Z,84.60
2018-08-10T01:37:34.171Z,84.10
2018-08-10T01:40:02.350Z,83.50
2018-08-10T01:42:30.604Z,83.30
2018-08-10T01:44:58.783Z,83.10
2018-08-10T01:47:27.012Z,83.90
2018-08-10T01:49:55.226Z,83.70
2018-08-10T01:52:23.455Z,85.20
2018-08-10T01:54:51.715Z,86.00
2018-08-10T01:57:19.898Z,86.40
2018-08-10T01:59:48.226Z,86.30
2018-08-10T02:02:16.438Z,87.20
2018-08-10T02:04:44.644Z,87.60
2018-08-10T02:07:12.860Z,87.60
2018-08-10T02:09:41.036Z,87.80
2018-08-10T02:12:09.271Z,88.50
2018-08-10T02:14:37.491Z,89.00
2018-08-10T02:17:05.854Z,88.40
2018-08-10T02:19:34.074Z,88.90
2018-08-10T02:22:03.063Z,88.70
2018-08-10T02:24:31.447Z,89.30
2018-08-10T02:26:59.678Z,90.00
2018-08-10T02:29:28.023Z,90.30
2018-08-10T02:31:56.496Z,90.30
2018-08-10T02:34:24.901Z,90.90
2018-08-10T02:36:53.136Z,91.40
2018-08-10T02:39:21.332Z,91.90
2018-08-10T02:41:49.723Z,92.00
2018-08-10T02:44:17.936Z,91.80
2018-08-10T02:46:46.150Z,91.20
2018-08-10T02:49:14.359Z,91.30
2018-08-10T02:51:42.580Z,90.40
2018-08-10T02:54:10.863Z,90.00
2018-08-10T02:56:39.055Z,88.40
2018-08-10T02:59:07.287Z,84.60
2018-08-10T03:01:35.563Z,82.20
2018-08-10T03:04:03.801Z,79.80
2018-08-10T03:06:32.031Z,77.50
2018-08-10T03:09:00.203Z,77.70
2018-08-10T03:11:28.442Z,77.50
2018-08-10T03:13:56.659Z,79.50
2018-08-10T03:16:24.932Z,78.90
2018-08-10T03:18:53.126Z,79.10
2018-08-10T03:21:21.323Z,79.60
2018-08-10T03:23:49.531Z,79.20
2018-08-10T03:26:17.777Z,80.10
2018-08-10T03:28:46.060Z,80.30
2018-08-10T03:31:14.269Z,80.60
2018-08-10T03:33:42.499Z,81.10
2018-08-10T03:36:10.687Z,81.80
2018-08-10T03:38:39.177Z,81.60
2018-08-10T03:41:07.471Z,81.90
2018-08-10T03:43:35.689Z,82.40
2018-08-10T03:46:03.866Z,81.20
2018-08-10T03:48:32.567Z,82.50
2018-08-10T03:51:00.767Z,83.90
2018-08-10T03:53:29.003Z,83.80
2018-08-10T03:55:57.195Z,84.00
2018-08-10T03:58:25.399Z,84.20
2018-08-10T04:00:53.607Z,85.60
2018-08-10T04:03:21.819Z,83.60
2018-08-10T04:05:50.035Z,83.70
2018-08-10T04:08:18.259Z,83.70
2018-08-10T04:10:46.459Z,84.80
2018-08-10T04:13:14.653Z,84.80
2018-08-10T04:15:42.881Z,85.20
2018-08-10T04:18:11.089Z,85.60
2018-08-10T04:20:39.299Z,85.50
2018-08-10T04:23:07.558Z,86.00
2018-08-10T04:25:35.815Z,85.10
2018-08-10T04:28:04.003Z,85.50
2018-08-10T04:30:32.183Z,86.00
2018-08-10T04:33:00.378Z,85.80
2018-08-10T04:35:28.577Z,86.50
2018-08-10T04:37:56.755Z,87.00
2018-08-10T04:40:24.963Z,87.90
2018-08-10T04:42:53.167Z,88.30
2018-08-10T04:45:21.398Z,88.70
2018-08-10T04:47:49.906Z,88.60
2018-08-10T04:50:18.887Z,87.00
2018-08-10T04:52:47.103Z,86.10
2018-08-10T04:55:15.300Z,86.30
2018-08-10T04:57:43.752Z,86.20
2018-08-10T05:00:13.839Z,86.30
2018-08-10T05:02:42.119Z,85.40
2018-08-10T05:05:11.064Z,85.60
2018-08-10T05:07:40.384Z,86.10
2018-08-10T05:10:08.920Z,86.50
2018-08-10T05:12:37.698Z,86.60
2018-08-10T05:15:07.025Z,87.50
2018-08-10T05:17:35.522Z,86.90
2018-08-10T05:20:04.188Z,85.30
2018-08-10T05:22:32.417Z,83.90
2018-08-10T05:25:00.855Z,83.50
2018-08-10T05:27:29.269Z,83.20
2018-08-10T05:29:57.499Z,82.50
2018-08-10T05:32:25.913Z,82.00
2018-08-10T05:34:54.255Z,81.40
2018-08-10T05:37:22.406Z,80.00
2018-08-10T05:39:50.652Z,79.20
2018-08-10T05:42:19.128Z,78.00
2018-08-10T05:44:47.395Z,77.40
2018-08-10T05:47:15.689Z,77.00
2018-08-10T05:49:43.842Z,76.40
2018-08-10T05:52:12.058Z,76.20
2018-08-10T05:54:40.284Z,75.70
2018-08-10T05:57:08.550Z,76.00
2018-08-10T05:59:36.835Z,75.60
2018-08-10T06:02:05.118Z,74.90
2018-08-10T06:04:33.362Z,73.70
2018-08-10T06:07:01.578Z,72.30
2018-08-10T06:09:29.805Z,72.40
2018-08-10T06:11:58.032Z,72.80
2018-08-10T06:14:26.222Z,73.30
2018-08-10T06:16:54.408Z,73.60
2018-08-10T06:19:22.638Z,73.80
2018-08-10T06:21:51.845Z,73.50
2018-08-10T06:24:20.044Z,73.40
2018-08-10T06:26:48.267Z,73.10
2018-08-10T06:29:16.442Z,72.10
2018-08-10T06:31:44.652Z,71.40
2018-08-10T06:34:12.920Z,70.10
2018-08-10T06:36:41.017Z,70.30
2018-08-10T06:39:10.234Z,69.90
2018-08-10T06:41:38.597Z,70.80
2018-08-10T06:44:07.315Z,70.40
2018-08-10T06:46:35.632Z,70.40
2018-08-10T06:49:03.811Z,70.80
2018-08-10T06:51:32.012Z,70.90
2018-08-10T06:54:00.231Z,71.80
2018-08-10T06:56:28.412Z,71.20
2018-08-10T06:58:56.732Z,70.90
2018-08-10T07:01:25.027Z,70.00
2018-08-10T07:03:53.131Z,69.10
2018-08-10T07:06:21.347Z,69.30
2018-08-10T07:08:49.539Z,68.20
2018-08-10T07:11:17.754Z,67.00
2018-08-10T07:13:45.931Z,67.50
2018-08-10T07:16:14.108Z,67.10
2018-08-10T07:18:42.335Z,68.30
2018-08-10T07:21:10.523Z,68.60
2018-08-10T07:23:38.739Z,66.30
2018-08-10T07:26:06.979Z,65.50
2018-08-10T07:28:35.593Z,64.60
2018-08-10T07:31:03.855Z,64.30
2018-08-10T07:33:32.120Z,62.20
2018-08-10T07:36:00.327Z,60.10
2018-08-10T07:38:28.584Z,58.70
2018-08-10T07:40:56.755Z,56.40
2018-08-10T07:43:25.143Z,56.40
2018-08-10T07:45:53.350Z,55.20
2018-08-10T07:48:21.530Z,53.80
2018-08-10T07:50:49.834Z,53.50
2018-08-10T07:53:18.039Z,53.20
2018-08-10T07:55:46.243Z,51.70
2018-08-10T07:58:14.415Z,50.30
2018-08-10T08:00:42.697Z,48.70
2018-08-10T08:03:10.963Z,48.20
2018-08-10T08:05:39.215Z,48.90
2018-08-10T08:08:07.539Z,50.70
2018-08-10T08:10:35.834Z,51.30
2018-08-10T08:13:03.975Z,50.20
2018-08-10T08:15:32.160Z,49.80
2018-08-10T08:18:00.398Z,50.60
2018-08-10T08:20:28.554Z,50.50
2018-08-10T08:23:02.636Z,52.60
2018-08-10T08:25:30.834Z,51.80
2018-08-10T08:27:59.411Z,51.00
2018-08-10T08:30:27.603Z,50.90
2018-08-10T08:32:55.878Z,52.30
2018-08-10T08:35:24.046Z,51.60
2018-08-10T08:37:52.252Z,52.20
2018-08-10T08:40:23.392Z,52.80
2018-08-10T08:42:51.833Z,53.00
2018-08-10T08:45:54.537Z,52.80
2018-08-10T08:48:22.973Z,52.20
2018-08-10T08:50:52.619Z,52.90
2018-08-10T08:53:20.791Z,51.30
2018-08-10T08:55:51.120Z,51.30
2018-08-10T08:58:19.507Z,51.30
2018-08-10T09:00:47.784Z,51.30
2018-08-10T09:03:27.932Z,51.70
2018-08-10T09:05:56.727Z,51.00
2018-08-10T09:08:24.923Z,49.00
2018-08-10T09:10:54.419Z,48.20
2018-08-10T09:13:22.615Z,46.90
2018-08-10T09:15:50.818Z,47.50
2018-08-10T09:18:19.041Z,47.60
2018-08-10T09:20:47.223Z,48.70
2018-08-10T09:23:15.446Z,49.90
2018-08-10T09:25:43.653Z,50.90
2018-08-10T09:28:11.861Z,49.70
2018-08-10T09:30:40.043Z,48.30
2018-08-10T09:33:08.232Z,48.60
2018-08-10T09:35:36.439Z,49.00
2018-08-10T09:38:04.624Z,48.80
2018-08-10T09:40:32.828Z,48.70
2018-08-10T09:43:01.036Z,49.80
2018-08-10T09:45:29.344Z,49.00
2018-08-10T09:47:57.511Z,50.20
2018-08-10T09:50:25.727Z,48.70
2018-08-10T09:52:58.061Z,48.60
2018-08-10T09:55:35.325Z,47.60
2018-08-10T09:58:05.175Z,47.50
2018-08-10T10:00:38.803Z,48.70
2018-08-10T10:03:14.442Z,48.30
2018-08-10T10:05:43.202Z,48.40
2018-08-10T10:08:11.408Z,47.00
2018-08-10T10:10:39.666Z,46.60
2018-08-10T10:13:07.878Z,45.50
2018-08-10T10:15:36.222Z,46.20
2018-08-10T10:18:04.963Z,46.60
2018-08-10T10:20:33.157Z,45.20
2018-08-10T10:23:01.339Z,46.10
2018-08-10T10:25:29.523Z,47.10
2018-08-10T10:27:57.776Z,45.60
2018-08-10T10:30:26.007Z,44.70
2018-08-10T10:32:54.191Z,44.30
2018-08-10T10:35:22.394Z,42.20
2018-08-10T10:37:50.639Z,44.20
2018-08-10T10:40:18.867Z,44.00
2018-08-10T10:42:47.097Z,44.30
2018-08-10T10:45:16.066Z,44.00
2018-08-10T10:47:45.518Z,43.60
2018-08-10T10:50:14.307Z,42.90
2018-08-10T10:52:42.665Z,43.00
2018-08-10T10:55:11.895Z,41.40
2018-08-10T10:57:40.858Z,43.00
2018-08-10T11:00:19.045Z,42.70
2018-08-10T11:02:48.162Z,42.60
2018-08-10T11:05:16.027Z,42.90
2018-08-10T11:07:44.364Z,41.40
2018-08-10T11:10:13.829Z,41.70
2018-08-10T11:12:42.087Z,42.80
2018-08-10T11:15:10.979Z,44.60
2018-08-10T11:17:39.195Z,44.60
2018-08-10T11:20:08.788Z,42.60
2018-08-10T11:22:37.407Z,43.00
2018-08-10T11:25:06.688Z,43.70
2018-08-10T11:27:34.910Z,43.00
2018-08-10T11:30:03.204Z,40.50
2018-08-10T11:32:31.390Z,42.40
2018-08-10T11:34:59.592Z,42.10
2018-08-10T11:37:27.788Z,43.50
2018-08-10T11:39:55.991Z,43.80
2018-08-10T11:42:24.189Z,44.40
2018-08-10T11:44:52.436Z,44.00
2018-08-10T11:47:20.584Z,42.00
2018-08-10T11:49:48.819Z,42.60
2018-08-10T11:52:17.031Z,43.00
2018-08-10T11:54:45.196Z,43.50
2018-08-10T11:57:13.405Z,42.80
2018-08-10T11:59:41.813Z,43.30
2018-08-10T12:02:10.058Z,42.70
2018-08-10T12:04:38.230Z,42.90
2018-08-10T12:07:06.447Z,44.60
2018-08-10T12:09:34.711Z,43.90
2018-08-10T12:12:02.927Z,44.30
2018-08-10T12:14:31.124Z,44.30
2018-08-10T12:16:59.303Z,45.20
2018-08-10T12:19:27.502Z,44.30
2018-08-10T12:21:55.678Z,45.60
2018-08-10T12:24:23.874Z,45.60
2018-08-10T12:26:52.047Z,46.00
2018-08-10T12:29:20.267Z,46.20
2018-08-10T12:31:48.456Z,45.30
2018-08-10T12:34:16.651Z,46.00
2018-08-10T12:36:44.931Z,46.10
2018-08-10T12:39:14.422Z,45.50
2018-08-10T12:41:42.775Z,46.30
2018-08-10T12:44:11.184Z,46.00
2018-08-10T12:46:39.408Z,44.90
2018-08-10T12:49:07.746Z,44.60
2018-08-10T12:51:36.605Z,44.90
2018-08-10T12:54:04.833Z,44.30
2018-08-10T12:56:33.012Z,43.20
2018-08-10T12:59:01.215Z,43.50
2018-08-10T13:01:29.541Z,45.20
2018-08-10T13:03:57.759Z,43.20
2018-08-10T13:06:26.043Z,42.50
2018-08-10T13:08:54.242Z,42.20
2018-08-10T13:11:22.419Z,42.60
2018-08-10T13:13:50.659Z,42.10
2018-08-10T13:16:19.432Z,41.60
2018-08-10T13:18:47.827Z,42.50
2018-08-10T13:21:16.035Z,42.60
2018-08-10T13:23:44.264Z,42.30
2018-08-10T13:26:12.440Z,39.80
2018-08-10T13:28:40.731Z,40.00
2018-08-10T13:31:09.095Z,40.30
2018-08-10T13:33:37.283Z,39.30
2018-08-10T13:36:05.501Z,36.70
2018-08-10T13:38:33.823Z,38.60
2018-08-10T13:41:02.045Z,40.30
2018-08-10T13:43:30.239Z,38.70
2018-08-10T13:45:58.672Z,38.70
2018-08-10T13:48:26.879Z,38.50
2018-08-10T13:50:55.060Z,40.20
2018-08-10T13:53:23.356Z,41.70
2018-08-10T13:58:26.035Z,42.60
2018-08-10T14:00:54.270Z,43.60
2018-08-10T14:03:22.436Z,43.50
2018-08-10T14:05:50.796Z,44.70
2018-08-10T14:08:18.972Z,45.90
2018-08-10T14:10:47.183Z,47.10
2018-08-10T14:13:15.403Z,47.60
2018-08-10T14:15:43.604Z,48.00
2018-08-10T14:18:11.802Z,48.20
2018-08-10T14:20:40.119Z,48.30
2018-08-10T14:23:08.350Z,48.80
2018-08-10T14:25:36.600Z,49.20
2018-08-10T14:28:04.811Z,49.80
2018-08-10T14:30:33.007Z,50.40
2018-08-10T14:33:01.229Z,51.20
2018-08-10T14:35:29.459Z,50.80
2018-08-10T14:37:57.678Z,51.10
2018-08-10T14:40:25.875Z,51.50
2018-08-10T14:42:54.063Z,51.70
2018-08-10T14:45:22.259Z,51.00
2018-08-10T14:47:50.451Z,51.10
2018-08-10T14:50:18.674Z,51.20
2018-08-10T14:52:46.884Z,50.80
2018-08-10T14:55:15.899Z,50.30
2018-08-10T14:57:44.135Z,50.50
2018-08-10T15:00:15.483Z,50.30
2018-08-10T15:02:43.904Z,50.70
2018-08-10T15:05:12.132Z,50.10
2018-08-10T15:07:40.374Z,50.00
2018-08-10T15:10:12.431Z,50.00
2018-08-10T15:12:40.845Z,49.10
2018-08-10T15:15:11.758Z,49.10
2018-08-10T15:17:40.234Z,49.50
2018-08-10T15:20:10.546Z,49.90
2018-08-10T15:22:38.736Z,50.60
2018-08-10T15:25:07.951Z,50.80
2018-08-10T15:27:36.139Z,50.30
2018-08-10T15:30:04.926Z,50.20
2018-08-10T15:32:33.164Z,50.30
2018-08-10T15:35:01.364Z,50.60
2018-08-10T15:37:29.549Z,50.70
2018-08-10T15:39:57.907Z,50.90
2018-08-10T15:42:26.107Z,50.70
2018-08-10T15:44:54.303Z,50.60
2018-08-10T15:47:22.516Z,50.50
2018-08-10T15:49:50.787Z,50.40
2018-08-10T15:52:18.936Z,49.90
2018-08-10T15:54:47.140Z,50.00
2018-08-10T15:57:15.357Z,49.80
2018-08-10T15:59:43.531Z,49.80
2018-08-10T16:02:11.819Z,49.50
2018-08-10T16:04:40.037Z,49.30
2018-08-10T16:07:08.274Z,47.90
2018-08-10T16:09:36.951Z,47.50
2018-08-10T16:12:05.156Z,47.60
2018-08-10T16:14:33.344Z,47.60
2018-08-10T16:17:01.604Z,47.90
2018-08-10T16:19:29.787Z,47.50
2018-08-10T16:21:58.059Z,47.10
2018-08-10T16:24:26.291Z,47.50
2018-08-10T16:26:54.487Z,47.30
2018-08-10T16:29:22.692Z,47.80
2018-08-10T16:31:50.911Z,47.90
2018-08-10T16:34:19.109Z,47.70
2018-08-10T16:36:47.311Z,47.50
2018-08-10T16:39:15.494Z,47.60
2018-08-10T16:44:19.590Z,47.80
2018-08-10T16:46:47.787Z,47.50
2018-08-10T16:49:15.971Z,47.40
2018-08-10T16:51:44.188Z,47.40
2018-08-10T16:54:12.371Z,46.70
2018-08-10T16:56:40.553Z,47.00
2018-08-10T16:59:08.763Z,47.40
2018-08-10T17:01:36.944Z,47.50
2018-08-10T17:04:05.166Z,48.20
2018-08-10T17:06:33.410Z,47.80
2018-08-10T17:09:02.788Z,47.70
2018-08-10T17:11:31.030Z,47.70
2018-08-10T17:13:59.236Z,47.80
2018-08-10T17:16:27.426Z,47.50
2018-08-10T17:18:55.598Z,47.10
2018-08-10T17:21:23.834Z,47.00
2018-08-10T17:23:52.021Z,46.10
2018-08-10T17:26:20.403Z,46.20
2018-08-10T17:28:48.624Z,46.30
2018-08-10T17:31:16.805Z,47.50
2018-08-10T17:33:45.019Z,48.40
2018-08-10T17:36:13.237Z,48.80
2018-08-10T17:38:41.475Z,49.20
2018-08-10T17:41:09.645Z,49.40
2018-08-10T17:43:37.841Z,49.50
2018-08-10T17:46:06.658Z,49.70
2018-08-10T17:48:34.887Z,50.00
2018-08-10T17:51:03.087Z,50.20
2018-08-10T17:53:31.325Z,50.40
2018-08-10T17:55:59.512Z,50.60
2018-08-10T17:58:27.713Z,51.50
2018-08-10T18:00:55.908Z,51.00
2018-08-10T18:03:24.140Z,51.20
2018-08-10T18:05:52.365Z,51.60
2018-08-10T18:08:20.555Z,51.30
2018-08-10T18:10:48.747Z,52.20
2018-08-10T18:13:16.979Z,52.60
2018-08-10T18:15:45.287Z,53.00
2018-08-10T18:18:13.499Z,53.40
2018-08-10T18:20:41.716Z,53.70
2018-08-10T18:23:12.959Z,54.00
2018-08-10T18:25:41.207Z,54.00
2018-08-10T18:28:09.471Z,53.90
2018-08-10T18:30:37.685Z,54.10
2018-08-10T18:33:06.494Z,54.40
2018-08-10T18:35:34.770Z,54.50
2018-08-10T18:38:03.024Z,54.60
2018-08-10T18:40:31.252Z,55.00
2018-08-10T18:42:59.482Z,55.20
2018-08-10T18:45:27.720Z,55.60
2018-08-10T18:47:55.976Z,56.00
2018-08-10T18:50:24.203Z,56.40
2018-08-10T18:52:52.389Z,56.60
2018-08-10T18:55:21.995Z,57.10
2018-08-10T18:57:50.784Z,57.30
2018-08-10T19:00:24.562Z,57.40
2018-08-10T19:02:52.946Z,57.50
2018-08-10T19:05:21.176Z,57.70
2018-08-10T19:07:49.699Z,58.10
2018-08-10T19:10:20.946Z,58.30
2018-08-10T19:12:49.231Z,58.70
2018-08-10T19:15:17.484Z,58.90
2018-08-10T19:17:45.777Z,59.40
2018-08-10T19:20:14.625Z,59.70
2018-08-10T19:22:42.908Z,59.90
2018-08-10T19:25:12.181Z,60.00
2018-08-10T19:27:40.404Z,60.50
2018-08-10T19:30:13.895Z,60.50
2018-08-10T19:32:42.649Z,60.60
2018-08-10T19:35:10.855Z,60.70
2018-08-10T19:37:39.447Z,61.00
2018-08-10T19:40:11.061Z,61.70
2018-08-10T19:42:39.463Z,62.10
2018-08-10T19:45:08.661Z,62.80
2018-08-10T19:47:37.178Z,63.40
2018-08-10T19:50:05.979Z,64.10
2018-08-10T19:52:34.167Z,64.70
2018-08-10T19:55:02.427Z,65.00
2018-08-10T19:57:30.607Z,64.90
2018-08-10T19:59:58.775Z,64.80
2018-08-10T20:02:26.998Z,65.40
2018-08-10T20:04:55.254Z,66.00
2018-08-10T20:07:23.448Z,66.40
2018-08-10T20:09:51.715Z,66.70
2018-08-10T20:12:19.907Z,66.80
2018-08-10T20:14:48.087Z,66.80
2018-08-10T20:17:16.303Z,66.70
2018-08-10T20:19:44.551Z,66.40
2018-08-10T20:22:15.084Z,66.50
2018-08-10T20:24:43.278Z,66.60
2018-08-10T20:27:12.005Z,66.70
2018-08-10T20:29:40.512Z,66.60
2018-08-10T20:32:08.763Z,66.70
2018-08-10T20:34:36.979Z,67.00
2018-08-10T20:37:05.223Z,66.80
2018-08-10T20:39:33.400Z,66.70
2018-08-10T20:42:01.601Z,66.80
2018-08-10T20:44:30.127Z,66.80
2018-08-10T20:46:58.358Z,66.60
2018-08-10T20:49:26.550Z,66.50
2018-08-10T20:51:54.759Z,66.50
2018-08-10T20:54:23.108Z,66.60
2018-08-10T20:56:51.371Z,66.70
2018-08-10T20:59:19.655Z,66.90
2018-08-10T21:01:47.934Z,67.20
2018-08-10T21:04:16.168Z,67.50
2018-08-10T21:06:44.366Z,67.50
2018-08-10T21:09:13.791Z,67.80
2018-08-10T21:11:43.032Z,68.10
2018-08-10T21:14:11.227Z,68.30
2018-08-10T21:16:39.751Z,68.40
2018-08-10T21:19:08.227Z,68.70
2018-08-10T21:21:36.371Z,68.90
2018-08-10T21:24:04.555Z,69.00
2018-08-10T21:26:32.798Z,69.10
2018-08-10T21:29:00.991Z,69.70
2018-08-10T21:31:29.298Z,69.50
2018-08-10T21:33:57.484Z,69.60
2018-08-10T21:36:25.691Z,69.70
2018-08-10T21:38:53.941Z,69.90
2018-08-10T21:41:22.156Z,70.10
2018-08-10T21:43:50.391Z,70.40
2018-08-10T21:46:18.576Z,70.60
2018-08-10T21:48:46.799Z,71.10
2018-08-10T21:51:14.983Z,71.30
2018-08-10T21:53:43.218Z,71.60
2018-08-10T21:56:11.602Z,70.70
2018-08-10T21:58:39.834Z,70.40
2018-08-10T22:01:08.085Z,70.20
2018-08-10T22:03:36.631Z,70.10
2018-08-10T22:06:04.886Z,69.60
2018-08-10T22:08:33.220Z,69.10
2018-08-10T22:11:01.431Z,68.70
2018-08-10T22:13:35.283Z,69.10
2018-08-10T22:16:08.977Z,68.00
2018-08-10T22:18:42.736Z,67.60
2018-08-10T22:21:10.916Z,66.90
2018-08-10T22:23:39.127Z,66.30
2018-08-10T22:26:07.397Z,65.30
2018-08-10T22:28:35.535Z,65.30
2018-08-10T22:31:03.745Z,64.90
2018-08-10T22:33:31.917Z,64.00
2018-08-10T22:36:00.143Z,64.20
2018-08-10T22:38:28.426Z,62.90
2018-08-10T22:40:56.644Z,62.50
2018-08-10T22:43:24.843Z,62.10
2018-08-10T22:45:53.236Z,62.10
2018-08-10T22:48:21.531Z,61.90
2018-08-10T22:50:49.969Z,61.80
2018-08-10T22:53:18.143Z,61.20
2018-08-10T22:55:46.402Z,61.50
2018-08-10T22:58:14.711Z,61.40
2018-08-10T23:00:42.910Z,61.40
2018-08-10T23:03:11.159Z,61.30
2018-08-10T23:05:39.420Z,60.70
2018-08-10T23:08:07.884Z,60.60
2018-08-10T23:10:36.196Z,60.00
2018-08-10T23:13:04.623Z,59.80
2018-08-10T23:15:32.819Z,60.00
2018-08-10T23:18:01.055Z,60.00
2018-08-10T23:20:29.336Z,59.80
2018-08-10T23:22:57.600Z,59.50
2018-08-10T23:25:25.786Z,59.40
2018-08-10T23:27:54.060Z,59.20
2018-08-10T23:30:22.393Z,59.10
2018-08-10T23:32:50.595Z,58.70
2018-08-10T23:35:18.815Z,58.40
2018-08-10T23:37:47.008Z,57.90
2018-08-10T23:40:16.126Z,57.60
2018-08-10T23:42:44.930Z,57.20
2018-08-10T23:45:14.305Z,56.90
2018-08-10T23:47:43.132Z,56.50
2018-08-10T23:50:13.126Z,56.70
2018-08-10T23:52:41.639Z,56.70
2018-08-10T23:58:12.654Z,56.50
